createdAt,value
2023-02-22T00:02:14.282Z,68.62
2023-02-22T00:04:42.095Z,68.93
2023-02-22T00:07:10.014Z,68.96
2023-02-22T00:09:37.782Z,68.78
2023-02-22T00:12:05.741Z,69.00
2023-02-22T00:14:33.813Z,68.98
2023-02-22T00:17:02.634Z,68.88
2023-02-22T00:19:31.300Z,68.94
2023-02-22T00:22:00.308Z,68.94
2023-02-22T00:24:29.628Z,69.06
2023-02-22T00:27:15.669Z,69.22
2023-02-22T00:29:47.321Z,69.23
2023-02-22T00:32:15.857Z,69.20
2023-02-22T00:34:43.872Z,69.44
2023-02-22T00:37:11.845Z,69.65
2023-02-22T00:39:40.526Z,69.77
2023-02-22T00:42:09.621Z,69.67
2023-02-22T00:44:37.490Z,69.63
2023-02-22T00:47:05.436Z,69.57
2023-02-22T00:49:33.319Z,69.62
2023-02-22T00:52:01.906Z,69.62
2023-02-22T00:54:29.771Z,69.54
2023-02-22T00:56:58.363Z,69.83
2023-02-22T00:59:27.473Z,69.76
2023-02-22T01:01:55.255Z,69.77
2023-02-22T01:04:23.280Z,69.91
2023-02-22T01:06:52.071Z,69.80
2023-02-22T01:09:21.712Z,69.77
2023-02-22T01:11:55.499Z,69.66
2023-02-22T01:14:28.159Z,69.64
2023-02-22T01:16:57.246Z,69.51
2023-02-22T01:19:25.634Z,69.52
2023-02-22T01:21:54.766Z,69.58
2023-02-22T01:24:22.588Z,69.56
2023-02-22T01:26:52.605Z,69.57
2023-02-22T01:29:21.351Z,69.72
2023-02-22T01:31:54.951Z,69.70
2023-02-22T01:34:24.322Z,69.83
2023-02-22T01:36:52.162Z,69.77
2023-02-22T01:39:20.130Z,69.85
2023-02-22T01:41:47.988Z,69.98
2023-02-22T01:44:22.802Z,70.17
2023-02-22T01:46:50.684Z,70.21
2023-02-22T01:49:19.530Z,70.30
2023-02-22T01:51:52.688Z,70.34
2023-02-22T01:54:45.728Z,70.35
2023-02-22T01:57:21.366Z,70.32
2023-02-22T01:59:53.942Z,70.43
2023-02-22T02:02:22.532Z,70.64
2023-02-22T02:04:50.445Z,70.53
2023-02-22T02:07:21.572Z,70.35
2023-02-22T02:09:58.318Z,70.24
2023-02-22T02:12:29.280Z,70.26
2023-02-22T02:15:29.069Z,70.58
2023-02-22T02:18:07.423Z,70.50
2023-02-22T02:20:40.467Z,70.42
2023-02-22T02:23:32.491Z,70.43
2023-02-22T02:26:21.844Z,70.43
2023-02-22T02:29:04.633Z,70.37
2023-02-22T02:31:50.640Z,70.57
2023-02-22T02:34:40.334Z,70.51
2023-02-22T02:37:36.066Z,70.43
2023-02-22T02:40:17.888Z,70.48
2023-02-22T02:43:05.285Z,70.32
2023-02-22T02:45:48.392Z,70.49
2023-02-22T02:48:21.506Z,70.52
2023-02-22T02:50:50.587Z,70.47
2023-02-22T02:53:25.459Z,70.47
2023-02-22T02:55:54.103Z,70.58
2023-02-22T02:58:23.776Z,70.79
2023-02-22T03:01:01.542Z,70.59
2023-02-22T03:03:51.829Z,70.66
2023-02-22T03:06:32.659Z,70.86
2023-02-22T03:09:31.019Z,70.97
2023-02-22T03:12:14.051Z,71.00
2023-02-22T03:15:02.963Z,71.15
2023-02-22T03:17:48.274Z,71.23
2023-02-22T03:20:31.687Z,71.26
2023-02-22T03:23:07.473Z,71.31
2023-02-22T03:25:43.456Z,71.29
2023-02-22T03:28:15.262Z,71.30
2023-02-22T03:30:49.237Z,71.29
2023-02-22T03:33:33.721Z,71.26
2023-02-22T03:36:09.598Z,71.14
2023-02-22T03:38:40.364Z,71.05
2023-02-22T03:41:10.817Z,70.96
2023-02-22T03:43:43.125Z,71.02
2023-02-22T03:46:12.917Z,70.87
2023-02-22T03:48:44.270Z,70.87
2023-02-22T03:51:16.776Z,70.85
2023-02-22T03:53:44.962Z,71.03
2023-02-22T03:56:20.583Z,71.02
2023-02-22T03:58:49.918Z,71.21
2023-02-22T04:01:19.968Z,71.16
2023-02-22T04:03:47.835Z,71.25
2023-02-22T04:06:16.170Z,71.28
2023-02-22T04:08:44.340Z,71.29
2023-02-22T04:11:12.518Z,71.65
2023-02-22T04:13:40.378Z,71.78
2023-02-22T04:16:09.062Z,71.75
2023-02-22T04:18:37.183Z,71.70
2023-02-22T04:21:05.618Z,71.88
2023-02-22T04:23:33.483Z,71.74
2023-02-22T04:26:01.452Z,71.57
2023-02-22T04:28:29.211Z,71.62
2023-02-22T04:30:57.463Z,71.60
2023-02-22T04:33:25.492Z,71.49
2023-02-22T04:35:53.252Z,71.52
2023-02-22T04:38:21.399Z,71.74
2023-02-22T04:40:49.260Z,71.86
2023-02-22T04:43:17.011Z,72.02
2023-02-22T04:45:45.708Z,71.85
2023-02-22T04:48:14.187Z,71.90
2023-02-22T04:50:42.365Z,71.95
2023-02-22T04:53:11.151Z,72.06
2023-02-22T04:55:39.223Z,72.19
2023-02-22T04:58:09.510Z,72.19
2023-02-22T05:00:37.424Z,72.20
2023-02-22T05:03:05.425Z,72.33
2023-02-22T05:05:33.305Z,72.55
2023-02-22T05:08:01.217Z,72.86
2023-02-22T05:10:29.682Z,72.89
2023-02-22T05:12:57.465Z,73.04
2023-02-22T05:15:25.714Z,73.25
2023-02-22T05:17:54.132Z,73.43
2023-02-22T05:20:28.797Z,73.44
2023-02-22T05:22:57.936Z,73.51
2023-02-22T05:25:27.873Z,73.33
2023-02-22T05:27:59.276Z,73.29
2023-02-22T05:30:31.401Z,73.31
2023-02-22T05:33:00.159Z,73.36
2023-02-22T05:35:29.346Z,73.31
2023-02-22T05:37:58.656Z,73.23
2023-02-22T05:40:27.743Z,73.10
2023-02-22T05:42:57.182Z,73.15
2023-02-22T05:45:27.439Z,73.06
2023-02-22T05:47:55.743Z,73.05
2023-02-22T05:50:24.843Z,73.06
2023-02-22T05:52:53.519Z,73.07
2023-02-22T05:55:23.734Z,73.18
2023-02-22T05:57:52.626Z,73.12
2023-02-22T06:00:23.937Z,73.14
2023-02-22T06:03:00.037Z,73.08
2023-02-22T06:05:30.124Z,73.17
2023-02-22T06:07:58.634Z,72.94
2023-02-22T06:10:27.515Z,72.84
2023-02-22T06:12:56.714Z,73.03
2023-02-22T06:15:26.981Z,72.91
2023-02-22T06:17:57.909Z,73.02
2023-02-22T06:20:28.186Z,72.99
2023-02-22T06:22:58.649Z,72.96
2023-02-22T06:25:31.319Z,73.15
2023-02-22T06:28:00.510Z,73.29
2023-02-22T06:30:29.666Z,73.51
2023-02-22T06:32:57.758Z,73.70
2023-02-22T06:35:26.608Z,73.79
2023-02-22T06:37:54.477Z,73.92
2023-02-22T06:40:22.358Z,73.98
2023-02-22T06:42:50.547Z,73.89
2023-02-22T06:45:18.696Z,73.79
2023-02-22T06:47:47.472Z,73.83
2023-02-22T06:50:30.131Z,73.73
2023-02-22T06:52:59.333Z,73.46
2023-02-22T06:55:32.518Z,73.27
2023-02-22T06:58:02.160Z,73.14
2023-02-22T07:00:32.342Z,73.17
2023-02-22T07:03:01.074Z,73.19
2023-02-22T07:05:29.312Z,73.15
2023-02-22T07:08:04.538Z,72.88
2023-02-22T07:10:34.542Z,72.59
2023-02-22T07:13:03.678Z,72.47
2023-02-22T07:15:33.067Z,72.26
2023-02-22T07:18:01.932Z,71.92
2023-02-22T07:20:32.186Z,71.60
2023-02-22T07:23:01.460Z,71.26
2023-02-22T07:25:29.342Z,70.72
2023-02-22T07:27:57.764Z,70.58
2023-02-22T07:30:31.749Z,69.84
2023-02-22T07:33:06.042Z,69.67
2023-02-22T07:35:49.392Z,69.74
2023-02-22T07:38:19.505Z,69.11
2023-02-22T07:40:47.390Z,69.34
2023-02-22T07:43:16.985Z,69.29
2023-02-22T07:45:46.512Z,69.15
2023-02-22T07:48:17.572Z,68.69
2023-02-22T07:50:46.241Z,68.18
2023-02-22T07:53:18.140Z,67.51
2023-02-22T07:55:46.537Z,67.83
2023-02-22T07:58:16.145Z,66.99
2023-02-22T08:00:44.675Z,66.78
2023-02-22T08:03:13.759Z,66.77
2023-02-22T08:05:45.813Z,66.40
2023-02-22T08:08:19.732Z,66.24
2023-02-22T08:10:50.272Z,66.31
2023-02-22T08:13:19.347Z,66.08
2023-02-22T08:15:50.147Z,65.91
2023-02-22T08:18:20.487Z,65.83
2023-02-22T08:20:50.555Z,65.69
2023-02-22T08:23:20.326Z,65.66
2023-02-22T08:25:48.779Z,65.88
2023-02-22T08:28:20.025Z,65.62
2023-02-22T08:30:47.971Z,65.47
2023-02-22T08:33:19.694Z,65.58
2023-02-22T08:35:52.173Z,65.80
2023-02-22T08:38:27.922Z,65.89
2023-02-22T08:40:56.663Z,66.06
2023-02-22T08:43:24.846Z,65.98
2023-02-22T08:45:54.446Z,65.99
2023-02-22T08:48:24.268Z,65.91
2023-02-22T08:50:52.151Z,65.35
2023-02-22T08:53:20.080Z,65.49
2023-02-22T08:55:47.944Z,65.54
2023-02-22T08:58:15.916Z,65.57
2023-02-22T09:00:45.119Z,65.83
2023-02-22T09:03:15.390Z,66.04
2023-02-22T09:05:44.695Z,66.18
2023-02-22T09:08:13.439Z,66.27
2023-02-22T09:10:41.623Z,66.45
2023-02-22T09:13:09.564Z,66.61
2023-02-22T09:15:39.723Z,66.84
2023-02-22T09:18:09.937Z,67.09
2023-02-22T09:20:38.295Z,67.48
2023-02-22T09:23:07.184Z,67.78
2023-02-22T09:25:35.894Z,67.94
2023-02-22T09:28:04.462Z,68.15
2023-02-22T09:30:35.424Z,68.25
2023-02-22T09:33:05.817Z,68.40
2023-02-22T09:35:36.538Z,68.45
2023-02-22T09:38:08.769Z,68.39
2023-02-22T09:40:45.062Z,68.31
2023-02-22T09:43:25.141Z,67.94
2023-02-22T09:46:19.527Z,67.76
2023-02-22T09:49:00.510Z,67.49
2023-02-22T09:51:58.957Z,67.35
2023-02-22T09:54:35.691Z,67.04
2023-02-22T09:57:16.348Z,66.87
2023-02-22T09:59:54.091Z,66.19
2023-02-22T10:02:32.441Z,66.13
2023-02-22T10:05:21.149Z,66.00
2023-02-22T10:07:58.444Z,66.18
2023-02-22T10:10:33.688Z,66.05
2023-02-22T10:13:24.512Z,66.03
2023-02-22T10:15:58.516Z,66.03
2023-02-22T10:18:51.570Z,66.07
2023-02-22T10:21:57.731Z,66.31
2023-02-22T10:24:47.768Z,66.60
2023-02-22T10:27:29.334Z,66.32
2023-02-22T10:30:24.575Z,66.25
2023-02-22T10:33:01.427Z,66.29
2023-02-22T10:35:38.685Z,66.57
2023-02-22T10:38:20.836Z,66.43
2023-02-22T10:41:24.102Z,66.63
2023-02-22T10:43:51.969Z,66.05
2023-02-22T10:46:22.867Z,65.32
2023-02-22T10:48:54.680Z,64.92
2023-02-22T10:51:22.800Z,64.54
2023-02-22T10:53:59.541Z,64.96
2023-02-22T10:56:28.685Z,64.96
2023-02-22T10:59:00.611Z,64.69
2023-02-22T11:01:31.426Z,64.55
2023-02-22T11:04:04.746Z,64.10
2023-02-22T11:06:34.938Z,63.92
2023-02-22T11:09:13.301Z,63.91
2023-02-22T11:11:44.139Z,63.73
2023-02-22T11:14:24.531Z,63.87
2023-02-22T11:16:58.564Z,63.71
2023-02-22T11:19:32.923Z,63.57
2023-02-22T11:22:19.185Z,63.69
2023-02-22T11:24:58.281Z,63.58
2023-02-22T11:27:54.263Z,63.03
2023-02-22T11:30:29.330Z,62.96
2023-02-22T11:33:12.682Z,63.11
2023-02-22T11:35:52.839Z,62.73
2023-02-22T11:38:32.779Z,61.93
2023-02-22T11:41:15.288Z,62.20
2023-02-22T11:43:48.747Z,62.17
2023-02-22T11:46:31.755Z,61.80
2023-02-22T11:49:05.311Z,61.44
2023-02-22T11:51:47.441Z,61.40
2023-02-22T11:54:25.497Z,60.66
2023-02-22T11:57:16.769Z,59.40
2023-02-22T12:00:06.769Z,59.93
2023-02-22T12:03:03.397Z,60.02
2023-02-22T12:05:42.740Z,59.73
2023-02-22T12:08:33.460Z,58.83
2023-02-22T12:11:20.550Z,56.99
2023-02-22T12:14:05.730Z,58.30
2023-02-22T12:17:07.484Z,58.56
2023-02-22T12:20:01.765Z,58.20
2023-02-22T12:22:34.707Z,58.57
2023-02-22T12:25:10.124Z,58.36
2023-02-22T12:27:53.147Z,57.90
2023-02-22T12:30:32.920Z,57.01
2023-02-22T12:33:06.428Z,56.03
2023-02-22T12:35:39.315Z,56.54
2023-02-22T12:38:23.617Z,56.02
2023-02-22T12:41:04.132Z,54.44
2023-02-22T12:43:39.134Z,56.08
2023-02-22T12:46:11.929Z,55.74
2023-02-22T12:48:54.842Z,56.25
2023-02-22T12:51:32.344Z,55.80
2023-02-22T12:54:21.991Z,54.83
2023-02-22T12:56:55.865Z,54.68
2023-02-22T12:59:39.011Z,54.82
2023-02-22T13:02:21.602Z,54.72
2023-02-22T13:04:50.407Z,54.54
2023-02-22T13:07:33.314Z,54.64
2023-02-22T13:10:32.411Z,54.76
2023-02-22T13:13:04.988Z,54.82
2023-02-22T13:15:51.940Z,54.43
2023-02-22T13:18:47.874Z,55.12
2023-02-22T13:21:20.964Z,54.77
2023-02-22T13:24:12.783Z,55.36
2023-02-22T13:26:51.505Z,55.49
2023-02-22T13:29:28.765Z,55.79
2023-02-22T13:32:25.778Z,56.16
2023-02-22T13:35:06.430Z,56.26
2023-02-22T13:38:14.890Z,56.05
2023-02-22T13:40:55.329Z,55.98
2023-02-22T13:43:41.534Z,56.02
2023-02-22T13:46:47.957Z,56.26
2023-02-22T13:49:19.822Z,56.12
2023-02-22T13:51:59.112Z,56.04
2023-02-22T13:54:30.042Z,55.77
2023-02-22T13:56:58.402Z,55.93
2023-02-22T13:59:39.564Z,55.95
2023-02-22T14:02:35.832Z,56.14
2023-02-22T14:05:45.268Z,56.23
2023-02-22T14:08:18.912Z,56.61
2023-02-22T14:10:49.590Z,56.64
2023-02-22T14:13:23.128Z,56.95
2023-02-22T14:16:00.417Z,56.76
2023-02-22T14:18:41.974Z,56.80
2023-02-22T14:21:13.563Z,56.60
2023-02-22T14:23:51.310Z,56.53
2023-02-22T14:26:37.789Z,56.87
2023-02-22T14:29:05.577Z,56.88
2023-02-22T14:31:55.452Z,56.69
2023-02-22T14:34:43.186Z,56.77
2023-02-22T14:37:17.555Z,56.95
2023-02-22T14:39:51.240Z,57.02
2023-02-22T14:42:38.410Z,56.89
2023-02-22T14:45:09.674Z,56.88
2023-02-22T14:48:04.167Z,57.24
2023-02-22T14:50:41.269Z,57.25
2023-02-22T14:53:41.595Z,57.21
2023-02-22T14:56:18.333Z,57.11
2023-02-22T14:59:11.501Z,57.16
2023-02-22T15:01:58.407Z,57.24
2023-02-22T15:04:33.913Z,57.12
2023-02-22T15:07:27.907Z,57.14
2023-02-22T15:10:39.116Z,57.37
2023-02-22T15:13:16.398Z,57.59
2023-02-22T15:15:49.295Z,57.67
2023-02-22T15:18:18.596Z,57.11
2023-02-22T15:20:49.526Z,57.16
2023-02-22T15:23:18.156Z,57.19
2023-02-22T15:25:50.182Z,57.22
2023-02-22T15:28:19.040Z,57.26
2023-02-22T15:30:48.160Z,56.91
2023-02-22T15:33:24.796Z,57.23
2023-02-22T15:35:57.213Z,56.98
2023-02-22T15:38:31.536Z,57.25
2023-02-22T15:41:05.617Z,57.29
2023-02-22T15:43:34.687Z,57.36
2023-02-22T15:46:03.446Z,57.56
2023-02-22T15:48:33.333Z,57.73
2023-02-22T15:51:10.639Z,57.81
2023-02-22T15:53:42.177Z,58.16
2023-02-22T15:56:40.446Z,58.20
2023-02-22T15:59:20.872Z,58.31
2023-02-22T16:01:54.365Z,58.66
2023-02-22T16:04:25.572Z,58.75
2023-02-22T16:07:17.148Z,58.96
